This is the latest recevied weather packets stored in our database for station/object KR4KUV. If no packets are shown the sender has not sent any weather packets the latest 10 day(s).
| Time | Temp. | Humidity | Pressure | Rain* | Wind** | Luminosity | Snow |
|---|---|---|---|---|---|---|---|
| 1788046408 | 26.67° C | 87% | 1021.7 hPa | 0 mm | - | 21 W/m² | - |
| 1788046106 | 27.22° C | 86% | 1021.4 hPa | 0 mm | - | 33 W/m² | - |
| 1788045801 | 27.22° C | 85% | 1021.5 hPa | 0 mm | - | 40 W/m² | - |
| 1788045497 | 27.22° C | 83% | 1021.4 hPa | 0 mm | - | 48 W/m² | - |
| 1788045192 | 28.33° C | 81% | 1021.3 hPa | 0 mm | - | 52 W/m² | - |
| 1788044887 | 28.33° C | 80% | 1021.6 hPa | 0 mm | - | 57 W/m² | - |
| 1788044581 | 28.89° C | 77% | 1021.5 hPa | 0 mm | - | 60 W/m² | - |
| 1788044280 | 28.89° C | 77% | 1021.7 hPa | 0 mm | - | 70 W/m² | - |
| 1788043977 | 30° C | 72% | 1021.7 hPa | 0 mm | - | 81 W/m² | - |
| 1788043671 | 30.56° C | 65% | 1021.7 hPa | 0 mm | - | 87 W/m² | - |
| 1788043366 | 30.56° C | 65% | 1021.7 hPa | 0 mm | - | 112 W/m² | - |
| 1788043065 | 30.56° C | 63% | 1021.7 hPa | 0 mm | - | 137 W/m² | - |
| 1788042761 | 30.56° C | 65% | 1021.5 hPa | 0 mm | - | 159 W/m² | - |
| 1788042460 | 30.56° C | 65% | 1021.6 hPa | 0 mm | - | 167 W/m² | - |
| 1788042155 | 31.11° C | 64% | 1021.6 hPa | 0 mm | - | 203 W/m² | - |
| 1788041851 | 30.56° C | 63% | 1021.7 hPa | 0 mm | - | 195 W/m² | - |
| 1788041546 | 30.56° C | 65% | 1021.5 hPa | 0 mm | - | 214 W/m² | - |
| 1788041241 | 30.56° C | 66% | 1021.7 hPa | 0 mm | - | 158 W/m² | - |
| 1788040939 | 30.56° C | 65% | 1021.6 hPa | 0 mm | - | 224 W/m² | - |
| 1788040638 | 30.56° C | 64% | 1021.6 hPa | 0 mm | - | 219 W/m² | - |
| 1788040334 | 30.56° C | 67% | 1021.7 hPa | 0 mm | - | 217 W/m² | - |
| 1788040034 | 30.56° C | 66% | 1021.8 hPa | 0 mm | - | 254 W/m² | - |
| 1788039729 | 30.56° C | 66% | 1021.7 hPa | 0 mm | - | 217 W/m² | - |
| 1788039429 | 30.56° C | 67% | 1021.7 hPa | 0 mm | - | 136 W/m² | - |
| 1788039124 | 30.56° C | 66% | 1021.7 hPa | 0 mm | - | 289 W/m² | - |
* Rain latest hour (hover to see other rain measurements)
** Current wind speed in m/s (hover to see current wind gust speed)